LFRG

Deauville-Saint-Gatien Airport

Deauville, France
TAF LFRG 210800Z 2109/2118 14010KT CAVOK PROB40 TEMPO 2112/2118 4000 TSRA BKN050CB BECMG 2115/2117 VRB05KT PROB30 TEMPO 2115/2118 VRB15G30KT 3000 TSRAGR
Issued Valid From Valid To
Apr-21 @ 08:00 UTC
(2 hours ago)
Apr-21 @ 09:00 UTC
(36 minutes ago)
Apr-21 @ 18:00 UTC
(in 8 hours)
Apr-21 @ 09:00 to Apr-21 @ 15:00
TAF LFRG 210800Z 2109/2118 14010KT CAVOK
Wind Visibility Clouds Conditions
140° at 10 knots 10,000+ meters
  • No significant clouds
Temporary  (Probability 40%) Apr-21 @ 12:00 to Apr-21 @ 18:00
PROB40 TEMPO 2112/2118 4000 TSRA BKN050CB
Visibility Clouds Conditions
4,007 meters
  • Broken at 5,000' AGL
  • Thunderstorm
  • Rain
Becoming Apr-21 @ 15:00 to Apr-21 @ 18:00
BECMG 2115/2117 VRB05KT
Wind Visibility Clouds Conditions
Variable at 5 knots 10,000+ meters
  • No significant clouds
Temporary  (Probability 30%) Apr-21 @ 15:00 to Apr-21 @ 18:00
PROB30 TEMPO 2115/2118 VRB15G30KT 3000 TSRAGR
Wind Visibility Conditions
Variable at 15 knots
 Gusting to 30 knots
2,993 meters
  • Thunderstorm
  • Rain
  • Thunderstorm
  • Hail
TAF LFRG 210800Z 2109/2118 14010KT CAVOK PROB40 TEMPO 2112/2118 4000 TSRA BKN050CB BECMG 2115/2117 VRB05KT PROB30 TEMPO 2115/2118 VRB15G30KT 3000 TSRAGR
Issued Apr-21 @ 08:00 UTC
(2 hours ago)
Valid From Apr-21 @ 09:00 UTC
(36 minutes ago)
Valid To Apr-21 @ 18:00 UTC
(in 8 hours)
Apr-21 @ 09:00 - Apr-21 @ 15:00
Wind Visibility
140° at 10 knots 10,000+ meters
Clouds
  • No significant clouds
Conditions
Probability 40% Temporary Apr-21 @ 12:00 - Apr-21 @ 18:00
Clouds
  • Broken at 5,000' AGL
Conditions
  • Thunderstorm
  • Rain
Becoming Apr-21 @ 15:00 - Apr-21 @ 18:00
Wind Visibility
Variable at 5 knots 10,000+ meters
Clouds
  • No significant clouds
Conditions
Probability 30% Temporary Apr-21 @ 15:00 - Apr-21 @ 18:00
Wind Visibility
Variable at 15 knots
 Gusting to 30 knots
2,993 meters
Conditions
  • Thunderstorm
  • Rain
  • Thunderstorm
  • Hail